Time;durP1;ratioP1;P1;durP2;ratioP2;P2;SDS_P1;SDS_P2;PMS_P1;PMS_P2;Temp;Humidity;BMP_temperature;BMP_pressure;BME280_temperature;BME280_humidity;BME280_pressure;Samples;Min_cycle;Max_cycle;Signal;HPM_P1;HPM_P2
2021/11/26 00:01:46;;;;;;;15.27;2.70;;;7.30;96.60;;;;;;5050009;28;20033;-77
2021/11/26 00:04:12;;;;;;;11.25;2.50;;;7.30;96.50;;;;;;5050120;28;20048;-77
2021/11/26 00:06:37;;;;;;;13.52;2.65;;;7.30;96.50;;;;;;5051365;28;20029;-77
2021/11/26 00:09:04;;;;;;;11.23;2.45;;;7.30;96.60;;;;;;5051318;28;20079;-77
2021/11/26 00:11:29;;;;;;;11.50;3.00;;;7.40;96.70;;;;;;5051447;28;20134;-78
2021/11/26 00:16:32;;;;;;;10.07;2.15;;;7.40;96.70;;;;;;5051409;28;20475;-78
2021/11/26 00:19:03;;;;;;;12.15;3.00;;;7.40;96.80;;;;;;5051511;28;20136;-78
2021/11/26 00:21:29;;;;;;;11.23;2.05;;;7.50;97.10;;;;;;5034392;28;20029;-77
2021/11/26 00:23:55;;;;;;;12.40;2.42;;;7.50;97.30;;;;;;5051444;28;20494;-77
2021/11/26 00:26:21;;;;;;;17.00;2.10;;;7.60;97.40;;;;;;5049793;28;20075;-77
2021/11/26 00:28:47;;;;;;;12.95;2.42;;;7.60;97.40;;;;;;5049982;28;20032;-77
2021/11/26 00:31:12;;;;;;;10.68;2.28;;;7.70;97.50;;;;;;5050017;28;20033;-78
2021/11/26 00:33:38;;;;;;;10.50;1.98;;;7.70;97.60;;;;;;5033512;28;20025;-79
2021/11/26 00:36:04;;;;;;;8.95;2.22;;;7.80;97.70;;;;;;5049977;28;20091;-77
2021/11/26 00:38:30;;;;;;;8.50;2.10;;;7.80;97.80;;;;;;5033180;28;20033;-77
2021/11/26 00:40:55;;;;;;;12.70;3.55;;;7.90;97.80;;;;;;5051236;28;20494;-78
2021/11/26 00:43:21;;;;;;;5.97;2.00;;;7.90;97.90;;;;;;5049974;28;20487;-78
2021/11/26 00:45:47;;;;;;;10.85;1.42;;;7.90;97.90;;;;;;5033290;28;20037;-77
2021/11/26 00:48:13;;;;;;;9.73;1.80;;;7.90;97.90;;;;;;5051020;28;20415;-78
2021/11/26 00:50:38;;;;;;;7.75;1.73;;;7.90;98.00;;;;;;5051230;28;20407;-78
2021/11/26 00:53:05;;;;;;;5.63;1.52;;;8.00;98.00;;;;;;5037549;28;20036;-77
2021/11/26 00:55:31;;;;;;;8.45;2.22;;;8.00;98.10;;;;;;5037277;28;20133;-78
2021/11/26 00:57:57;;;;;;;11.95;1.88;;;8.00;98.10;;;;;;5055262;28;20416;-77
2021/11/26 01:00:23;;;;;;;9.68;1.92;;;8.10;98.20;;;;;;5053641;28;20044;-77
2021/11/26 01:02:49;;;;;;;10.52;1.80;;;8.10;98.30;;;;;;5053528;28;20063;-77
2021/11/26 01:05:15;;;;;;;7.70;1.88;;;8.10;98.40;;;;;;5053441;28;20043;-78
2021/11/26 01:07:42;;;;;;;4.38;1.58;;;8.20;98.40;;;;;;5053508;28;20035;-77
2021/11/26 01:10:15;;;;;;;9.13;2.00;;;8.20;98.50;;;;;;5054875;28;20027;-76
2021/11/26 01:12:40;;;;;;;8.00;1.90;;;8.20;98.40;;;;;;5054682;28;20566;-79
2021/11/26 01:15:10;;;;;;;12.13;2.60;;;8.20;98.50;;;;;;5054606;28;20063;-78
2021/11/26 01:17:37;;;;;;;13.07;2.30;;;8.20;98.50;;;;;;5054494;28;20308;-79
2021/11/26 01:20:05;;;;;;;6.57;1.38;;;8.30;98.60;;;;;;5054506;28;20498;-77
2021/11/26 01:22:30;;;;;;;9.98;1.77;;;8.30;98.60;;;;;;5054540;28;20025;-75
2021/11/26 01:24:56;;;;;;;8.63;1.92;;;8.30;98.70;;;;;;5054370;28;20044;-77
2021/11/26 01:27:22;;;;;;;6.47;2.08;;;8.30;98.70;;;;;;5053122;28;20079;-78
2021/11/26 01:29:48;;;;;;;5.43;1.42;;;8.40;98.80;;;;;;5053252;28;20032;-78
2021/11/26 01:32:14;;;;;;;15.20;1.40;;;8.40;98.80;;;;;;5054317;28;20100;-77
2021/11/26 01:34:40;;;;;;;5.57;1.85;;;8.40;98.80;;;;;;5054291;28;20020;-78
2021/11/26 01:37:05;;;;;;;7.18;1.77;;;8.40;98.90;;;;;;5036493;28;20087;-78
2021/11/26 01:39:31;;;;;;;4.97;2.47;;;8.50;98.90;;;;;;5053027;28;20487;-78
2021/11/26 01:41:57;;;;;;;7.65;1.17;;;8.50;98.90;;;;;;5054172;28;20025;-77
2021/11/26 01:44:23;;;;;;;8.75;2.28;;;8.50;98.90;;;;;;5054259;28;20108;-78
2021/11/26 01:46:49;;;;;;;8.05;1.50;;;8.50;98.90;;;;;;5053944;28;20112;-76
2021/11/26 01:49:15;;;;;;;11.68;2.08;;;8.50;98.90;;;;;;5054001;28;20112;-77
2021/11/26 01:51:41;;;;;;;9.30;2.20;;;8.50;99.00;;;;;;5054010;28;20064;-77
2021/11/26 01:54:08;;;;;;;6.13;1.30;;;8.50;99.00;;;;;;5052763;28;20503;-77
2021/11/26 01:56:34;;;;;;;3.50;1.40;;;8.50;99.10;;;;;;5052505;28;20044;-75
2021/11/26 01:59:00;;;;;;;3.53;1.20;;;8.50;99.10;;;;;;5053922;28;20489;-77
2021/11/26 02:01:26;;;;;;;5.95;1.77;;;8.50;99.10;;;;;;5053885;28;20044;-77
2021/11/26 02:03:53;;;;;;;4.97;0.80;;;8.60;99.20;;;;;;5052446;28;20048;-77
2021/11/26 02:06:19;;;;;;;8.70;1.58;;;8.60;99.30;;;;;;5052427;28;20037;-76
2021/11/26 02:08:45;;;;;;;;;;;8.60;99.30;;;;;;5052851;28;20028;-78
2021/11/26 02:11:11;;;;;;;5.53;1.20;;;8.70;99.30;;;;;;5052359;28;19913;-76
2021/11/26 02:13:37;;;;;;;8.45;1.33;;;8.70;99.20;;;;;;5053564;28;20025;-76
2021/11/26 02:16:04;;;;;;;3.85;1.25;;;8.70;99.10;;;;;;5053715;28;20064;-76
2021/11/26 02:18:31;;;;;;;9.02;1.27;;;8.70;99.10;;;;;;5052231;28;20025;-76
2021/11/26 02:20:57;;;;;;;4.75;1.10;;;8.80;99.20;;;;;;5035666;28;20399;-76
2021/11/26 02:23:23;;;;;;;;;;;8.80;99.10;;;;;;5035950;28;20487;-77
2021/11/26 02:25:49;;;;;;;8.85;1.33;;;8.80;99.10;;;;;;5053357;28;19909;-77
2021/11/26 02:28:16;;;;;;;5.72;1.27;;;8.90;99.00;;;;;;5053307;28;20546;-78
2021/11/26 02:30:42;;;;;;;4.72;1.20;;;8.90;99.00;;;;;;5053201;28;20312;-77
2021/11/26 02:33:12;;;;;;;5.00;1.20;;;8.90;99.00;;;;;;5053281;28;20479;-77
2021/11/26 02:35:38;;;;;;;9.32;1.45;;;8.90;99.20;;;;;;5053112;28;20029;-76
2021/11/26 02:38:07;;;;;;;5.38;1.25;;;8.90;99.00;;;;;;5053136;28;20029;-76
2021/11/26 02:40:34;;;;;;;5.68;1.17;;;8.90;98.90;;;;;;5051837;28;20082;-76
2021/11/26 02:43:00;;;;;;;7.43;0.88;;;8.90;98.90;;;;;;5051885;28;20033;-76
2021/11/26 02:45:26;;;;;;;;;;;8.90;98.90;;;;;;5052006;28;20481;-76
2021/11/26 02:47:53;;;;;;;6.25;1.10;;;9.00;98.90;;;;;;5052807;28;19909;-77
2021/11/26 02:50:19;;;;;;;7.57;1.35;;;9.00;98.80;;;;;;5035345;28;20025;-77
2021/11/26 02:52:46;;;;;;;7.20;1.17;;;9.00;98.80;;;;;;5051542;28;20545;-77
2021/11/26 02:55:16;;;;;;;6.80;1.13;;;9.00;98.80;;;;;;5052824;28;20406;-77
2021/11/26 02:57:41;;;;;;;6.55;0.80;;;9.00;98.80;;;;;;5052686;28;20037;-76
2021/11/26 03:00:12;;;;;;;2.92;0.70;;;9.00;98.80;;;;;;5051355;28;20029;-76
2021/11/26 03:02:38;;;;;;;4.97;1.27;;;9.00;98.80;;;;;;5051402;28;20028;-75
2021/11/26 03:05:04;;;;;;;5.43;1.02;;;9.00;98.80;;;;;;5051048;28;20459;-76
2021/11/26 03:07:29;;;;;;;5.15;0.95;;;9.10;98.80;;;;;;5051284;28;20098;-77
2021/11/26 03:09:55;;;;;;;3.70;0.98;;;9.10;98.80;;;;;;5052763;28;20460;-76
2021/11/26 03:12:21;;;;;;;8.48;1.15;;;9.10;98.80;;;;;;5052841;28;20475;-76
2021/11/26 03:14:47;;;;;;;2.08;0.57;;;9.10;98.70;;;;;;5051942;28;20392;-77
2021/11/26 03:17:13;;;;;;;6.85;1.10;;;9.10;98.70;;;;;;5051141;28;20021;-77
2021/11/26 03:19:39;;;;;;;10.15;1.65;;;9.10;98.70;;;;;;5051024;28;20029;-76
2021/11/26 03:22:05;;;;;;;5.78;1.08;;;9.10;98.70;;;;;;5051007;28;20113;-76
2021/11/26 03:24:30;;;;;;;7.03;1.60;;;9.10;98.70;;;;;;5052335;28;20037;-77
2021/11/26 03:26:56;;;;;;;5.93;1.35;;;9.00;98.80;;;;;;5034259;28;20033;-75
2021/11/26 03:29:22;;;;;;;7.90;1.23;;;9.00;98.80;;;;;;5050862;28;20053;-76
2021/11/26 03:31:48;;;;;;;5.80;0.73;;;9.00;98.90;;;;;;5052357;28;20032;-76
2021/11/26 03:34:13;;;;;;;12.70;1.95;;;8.90;99.00;;;;;;5052084;28;20519;-75
2021/11/26 03:36:39;;;;;;;6.53;0.80;;;8.90;99.10;;;;;;5050545;28;20037;-76
2021/11/26 03:39:05;;;;;;;15.30;1.13;;;8.90;99.10;;;;;;5050736;28;20033;-77
2021/11/26 03:41:31;;;;;;;4.38;0.90;;;8.90;99.20;;;;;;5051964;28;20064;-76
2021/11/26 03:43:57;;;;;;;;;;;8.90;99.20;;;;;;5052331;28;20430;-76
2021/11/26 03:46:23;;;;;;;5.47;1.73;;;8.90;99.20;;;;;;5050698;28;20291;-76
2021/11/26 03:48:49;;;;;;;8.55;1.90;;;8.90;99.20;;;;;;5034011;28;20028;-76
2021/11/26 03:51:15;;;;;;;6.45;0.93;;;8.90;99.30;;;;;;5051896;28;20021;-76
2021/11/26 03:53:40;;;;;;;6.25;0.93;;;8.90;99.40;;;;;;5051872;28;20035;-75
2021/11/26 03:56:06;;;;;;;11.57;1.45;;;8.80;99.50;;;;;;5051654;28;20033;-76
2021/11/26 03:58:32;;;;;;;3.25;1.08;;;8.80;99.50;;;;;;5050311;28;20033;-76
2021/11/26 04:00:58;;;;;;;7.63;0.98;;;8.80;99.60;;;;;;5033650;28;20040;-76
2021/11/26 04:03:24;;;;;;;11.10;1.48;;;8.80;99.70;;;;;;5051371;28;20134;-77
2021/11/26 04:05:50;;;;;;;10.90;1.77;;;8.80;99.80;;;;;;5051588;28;20041;-76
2021/11/26 04:08:16;;;;;;;10.07;1.35;;;8.80;99.80;;;;;;5051486;28;20029;-76
2021/11/26 04:10:41;;;;;;;7.70;1.20;;;8.90;99.80;;;;;;5050280;28;20102;-76
2021/11/26 04:13:09;;;;;;;12.10;1.60;;;8.90;99.90;;;;;;5051459;28;20025;-76
2021/11/26 04:15:37;;;;;;;6.05;1.25;;;8.90;99.90;;;;;;5050350;28;20033;-76
2021/11/26 04:18:05;;;;;;;8.63;1.40;;;8.80;99.90;;;;;;5051304;28;20033;-76
2021/11/26 04:20:32;;;;;;;4.90;0.90;;;8.80;99.90;;;;;;5049987;28;20063;-75
2021/11/26 04:22:58;;;;;;;6.10;1.38;;;8.80;99.90;;;;;;5051390;28;20021;-75
2021/11/26 04:25:24;;;;;;;7.45;1.40;;;8.80;99.90;;;;;;5049143;28;20124;-76
2021/11/26 04:27:50;;;;;;;5.63;0.88;;;8.80;99.90;;;;;;5051238;28;20092;-76
2021/11/26 04:30:19;;;;;;;5.32;1.25;;;8.80;99.90;;;;;;5033247;28;20033;-76
2021/11/26 04:32:49;;;;;;;4.75;1.27;;;8.80;99.90;;;;;;5051215;28;20052;-76
2021/11/26 04:35:16;;;;;;;4.75;0.93;;;8.80;99.90;;;;;;5033269;28;20079;-77
2021/11/26 04:37:42;;;;;;;4.07;1.25;;;8.80;99.90;;;;;;5050934;28;20021;-76
2021/11/26 04:40:10;;;;;;;9.77;1.10;;;8.90;99.90;;;;;;5050954;28;20089;-76
2021/11/26 04:42:38;;;;;;;4.80;1.45;;;8.90;99.90;;;;;;5049614;28;20576;-75
2021/11/26 04:45:06;;;;;;;6.30;0.85;;;8.90;99.90;;;;;;5049561;28;20059;-77
2021/11/26 04:47:31;;;;;;;6.50;1.08;;;8.90;99.90;;;;;;5049492;28;20044;-76
2021/11/26 04:49:58;;;;;;;6.22;1.20;;;8.90;99.90;;;;;;5049666;28;20013;-76
2021/11/26 04:52:24;;;;;;;;;;;9.00;99.90;;;;;;5051437;28;20033;-75
2021/11/26 04:54:50;;;;;;;4.95;1.33;;;9.00;99.90;;;;;;5050899;28;19904;-75
2021/11/26 04:57:15;;;;;;;1.83;0.50;;;9.10;99.90;;;;;;5049677;28;20342;-77
2021/11/26 04:59:41;;;;;;;3.65;0.95;;;9.10;99.90;;;;;;5033020;28;20044;-75
2021/11/26 05:02:07;;;;;;;6.18;1.25;;;9.10;99.90;;;;;;5033001;28;20025;-75
2021/11/26 05:04:32;;;;;;;5.28;0.85;;;9.10;99.90;;;;;;5050798;28;20438;-75
2021/11/26 05:07:01;;;;;;;4.25;0.90;;;9.20;99.90;;;;;;5049579;28;20037;-75
2021/11/26 05:09:27;;;;;;;5.32;1.20;;;9.10;99.90;;;;;;5049536;28;20423;-76
2021/11/26 05:11:54;;;;;;;7.05;1.33;;;9.10;99.90;;;;;;5050761;28;20017;-75
2021/11/26 05:14:23;;;;;;;2.28;0.57;;;9.20;99.90;;;;;;5050658;28;20563;-77
2021/11/26 05:16:49;;;;;;;6.43;1.13;;;9.20;99.90;;;;;;5050756;28;20029;-75
2021/11/26 05:19:14;;;;;;;3.85;0.90;;;9.10;99.90;;;;;;5050981;28;20025;-75
2021/11/26 05:21:40;;;;;;;2.65;0.52;;;9.10;99.90;;;;;;5032785;28;20596;-76
2021/11/26 05:24:06;;;;;;;2.92;0.60;;;9.10;99.90;;;;;;5050684;28;20542;-76
2021/11/26 05:26:32;;;;;;;5.38;1.15;;;9.10;99.90;;;;;;5050567;28;20057;-76
2021/11/26 05:28:57;;;;;;;5.13;0.98;;;9.20;99.90;;;;;;5050680;28;20029;-76
2021/11/26 05:31:23;;;;;;;6.50;1.23;;;9.20;99.90;;;;;;5049714;28;20784;-76
2021/11/26 05:33:49;;;;;;;4.47;0.52;;;9.20;99.90;;;;;;5049406;28;20115;-76
2021/11/26 05:36:16;;;;;;;5.47;0.90;;;9.20;99.90;;;;;;5050523;28;20071;-76
2021/11/26 05:38:42;;;;;;;4.70;1.13;;;9.20;99.90;;;;;;5053571;28;20040;-76
2021/11/26 05:41:08;;;;;;;2.58;0.43;;;9.20;99.90;;;;;;5054233;28;20029;-75
2021/11/26 05:43:34;;;;;;;3.05;0.50;;;9.20;99.90;;;;;;5052732;28;20033;-75
2021/11/26 05:46:00;;;;;;;3.75;0.95;;;9.30;99.90;;;;;;5053873;28;20049;-75
2021/11/26 05:48:26;;;;;;;4.68;0.90;;;9.30;99.90;;;;;;5053954;28;20033;-75
2021/11/26 05:50:51;;;;;;;3.78;0.70;;;9.30;99.90;;;;;;5053951;28;20399;-77
2021/11/26 05:53:17;;;;;;;7.07;0.95;;;9.30;99.90;;;;;;5054221;28;20028;-76
2021/11/26 05:55:43;;;;;;;6.60;1.02;;;9.30;99.90;;;;;;5054160;28;20033;-76
2021/11/26 05:58:09;;;;;;;7.20;1.42;;;9.30;99.90;;;;;;5052353;28;20062;-76
2021/11/26 06:00:35;;;;;;;2.72;0.60;;;9.20;99.90;;;;;;5036184;28;20067;-76
2021/11/26 06:03:02;;;;;;;8.00;1.38;;;9.20;99.90;;;;;;5035879;28;20041;-75
2021/11/26 06:05:28;;;;;;;5.80;1.05;;;9.20;99.90;;;;;;5053720;28;20116;-76
2021/11/26 06:07:53;;;;;;;3.80;0.80;;;9.20;99.90;;;;;;5052451;28;20121;-76
2021/11/26 06:10:20;;;;;;;6.90;1.27;;;9.20;99.90;;;;;;5053817;28;20100;-75
2021/11/26 06:12:48;;;;;;;8.32;1.90;;;9.30;99.90;;;;;;5053734;28;20519;-76
2021/11/26 06:15:16;;;;;;;4.47;1.02;;;9.30;99.90;;;;;;5052370;28;20386;-76
2021/11/26 06:17:42;;;;;;;7.07;1.67;;;9.40;99.90;;;;;;5053471;28;20052;-75
2021/11/26 06:20:09;;;;;;;;;;;9.40;99.90;;;;;;5053867;28;20078;-76
2021/11/26 06:22:35;;;;;;;4.07;0.88;;;9.40;99.90;;;;;;5053998;28;19982;-76
2021/11/26 06:25:01;;;;;;;4.25;1.08;;;9.40;99.90;;;;;;5052084;28;20037;-75
2021/11/26 06:27:27;;;;;;;8.30;1.13;;;9.40;99.90;;;;;;5053331;28;20064;-77
2021/11/26 06:29:53;;;;;;;10.50;1.17;;;9.40;99.90;;;;;;5035644;28;20064;-75
2021/11/26 06:32:20;;;;;;;10.18;2.15;;;9.40;99.90;;;;;;5053267;28;20048;-77
2021/11/26 06:34:45;;;;;;;7.18;1.30;;;9.40;99.90;;;;;;5051730;28;20033;-77
2021/11/26 06:37:11;;;;;;;13.43;1.50;;;9.40;99.90;;;;;;5053235;28;20044;-76
2021/11/26 06:39:37;;;;;;;12.95;1.80;;;9.30;99.90;;;;;;5053133;28;20476;-76
2021/11/26 06:42:03;;;;;;;8.63;1.75;;;9.20;99.90;;;;;;5051814;28;20060;-76
2021/11/26 06:44:29;;;;;;;12.98;2.05;;;9.20;99.90;;;;;;5053344;28;20033;-76
2021/11/26 06:46:55;;;;;;;5.20;1.85;;;9.20;99.90;;;;;;5051701;28;20025;-75
2021/11/26 06:49:21;;;;;;;10.82;1.50;;;9.20;99.90;;;;;;5050517;28;20086;-76
2021/11/26 06:51:46;;;;;;;15.52;2.75;;;9.10;99.90;;;;;;5052854;28;20025;-75
2021/11/26 06:54:12;;;;;;;15.75;1.65;;;9.10;99.90;;;;;;5052713;28;20033;-75
2021/11/26 06:56:38;;;;;;;7.72;1.30;;;9.10;99.90;;;;;;5052586;28;20032;-75
2021/11/26 06:59:04;;;;;;;9.40;1.50;;;9.10;99.90;;;;;;5051179;28;20440;-75
2021/11/26 07:01:30;;;;;;;11.00;1.77;;;9.10;99.90;;;;;;5052516;28;20025;-76
2021/11/26 07:03:56;;;;;;;;;;;9.00;99.90;;;;;;5052794;28;20515;-76
2021/11/26 07:06:22;;;;;;;8.75;1.52;;;9.00;99.90;;;;;;5034642;28;19925;-77
2021/11/26 07:08:48;;;;;;;7.53;1.58;;;9.00;99.90;;;;;;5052427;28;20025;-77
2021/11/26 07:11:14;;;;;;;7.88;1.77;;;9.00;99.90;;;;;;5051235;28;20426;-77
2021/11/26 07:13:39;;;;;;;11.38;2.30;;;8.90;99.90;;;;;;5051017;28;20037;-77
2021/11/26 07:16:06;;;;;;;11.27;1.75;;;8.90;99.90;;;;;;5051881;28;20033;-75
2021/11/26 07:18:31;;;;;;;13.18;2.78;;;8.90;99.90;;;;;;5051826;28;20076;-75
2021/11/26 07:20:57;;;;;;;12.70;1.98;;;8.90;99.90;;;;;;5051794;28;20037;-75
2021/11/26 07:23:23;;;;;;;10.35;2.08;;;8.90;99.90;;;;;;5034150;28;20049;-77
2021/11/26 07:25:48;;;;;;;12.13;1.95;;;8.90;99.90;;;;;;5051972;28;20452;-76
2021/11/26 07:28:14;;;;;;;12.73;2.17;;;8.90;99.90;;;;;;5051802;28;20414;-75
2021/11/26 07:30:40;;;;;;;11.45;1.75;;;8.90;99.90;;;;;;5050597;28;20045;-76
2021/11/26 07:33:07;;;;;;;9.43;1.55;;;9.00;99.90;;;;;;5050725;28;20033;-76
2021/11/26 07:35:34;;;;;;;11.60;1.95;;;9.00;99.90;;;;;;5051878;28;20383;-75
2021/11/26 07:38:00;;;;;;;9.32;1.23;;;8.90;99.90;;;;;;5050325;28;20028;-75
2021/11/26 07:40:26;;;;;;;7.95;1.58;;;9.00;99.90;;;;;;5051902;28;20128;-76
2021/11/26 07:42:51;;;;;;;11.98;1.98;;;9.00;99.90;;;;;;5051749;28;20103;-76
2021/11/26 07:45:17;;;;;;;13.77;2.15;;;9.00;99.90;;;;;;5051743;28;20067;-76
2021/11/26 07:47:43;;;;;;;14.10;1.35;;;8.90;99.80;;;;;;5050248;28;20033;-76
2021/11/26 07:50:11;;;;;;;8.55;2.05;;;9.00;99.70;;;;;;5050197;28;20044;-75
2021/11/26 07:52:38;;;;;;;5.95;1.80;;;8.90;99.50;;;;;;5033337;28;20070;-76
2021/11/26 07:55:06;;;;;;;10.35;1.75;;;8.90;99.30;;;;;;5051601;28;20036;-75
2021/11/26 07:57:33;;;;;;;6.78;1.38;;;8.90;99.00;;;;;;5051309;28;20036;-76
2021/11/26 07:59:58;;;;;;;7.80;2.20;;;8.70;98.90;;;;;;5049951;28;20083;-77
2021/11/26 08:02:24;;;;;;;12.00;2.08;;;8.60;98.60;;;;;;5051091;28;20071;-77
2021/11/26 08:04:50;;;;;;;7.20;1.58;;;8.60;98.70;;;;;;5050819;28;20076;-77
2021/11/26 08:07:15;;;;;;;18.02;1.92;;;8.40;98.60;;;;;;5049881;28;20057;-77
2021/11/26 08:09:41;;;;;;;9.52;1.15;;;8.30;98.60;;;;;;5033528;28;20444;-77
2021/11/26 08:12:07;;;;;;;10.75;1.38;;;8.30;98.60;;;;;;5016960;28;20079;-77
2021/11/26 08:14:33;;;;;;;9.85;1.58;;;8.20;98.60;;;;;;5049753;28;20033;-76
2021/11/26 08:16:59;;;;;;;13.27;2.78;;;8.20;98.50;;;;;;5051038;28;20561;-76
2021/11/26 08:19:26;;;;;;;19.08;2.45;;;8.20;98.40;;;;;;5016965;28;20136;-76
2021/11/26 08:21:53;;;;;;;13.32;2.33;;;8.20;98.30;;;;;;5049637;28;20029;-76
2021/11/26 08:24:21;;;;;;;12.90;1.83;;;8.10;98.30;;;;;;5051036;28;20120;-75
2021/11/26 08:26:48;;;;;;;12.82;2.10;;;8.10;98.20;;;;;;5050548;28;20110;-76
2021/11/26 08:29:14;;;;;;;10.02;2.22;;;8.10;98.30;;;;;;5050912;28;20017;-77
2021/11/26 08:31:39;;;;;;;13.55;2.88;;;8.10;98.20;;;;;;5050740;28;20380;-75
2021/11/26 08:34:06;;;;;;;10.98;2.33;;;8.10;98.20;;;;;;5050992;28;20033;-76
2021/11/26 08:36:32;;;;;;;11.40;2.35;;;8.20;98.30;;;;;;5049203;28;20632;-77
2021/11/26 08:38:58;;;;;;;13.05;2.30;;;8.30;98.40;;;;;;5050756;28;20029;-77
2021/11/26 08:41:25;;;;;;;16.77;2.00;;;8.40;98.40;;;;;;5050673;28;20044;-77
2021/11/26 08:43:51;;;;;;;11.10;2.63;;;8.40;98.30;;;;;;5049671;28;20035;-77
2021/11/26 08:46:17;;;;;;;14.05;2.05;;;8.40;98.40;;;;;;5051281;28;20538;-76
2021/11/26 08:48:44;;;;;;;11.52;1.98;;;8.50;98.10;;;;;;5050137;28;20030;-77
2021/11/26 08:51:11;;;;;;;8.60;1.75;;;8.40;98.10;;;;;;5051170;28;20029;-77
2021/11/26 08:53:40;;;;;;;10.05;1.67;;;8.40;97.80;;;;;;5051111;28;20036;-77
2021/11/26 08:56:06;;;;;;;8.45;1.75;;;8.20;97.70;;;;;;5049413;28;20123;-78
2021/11/26 08:58:35;;;;;;;9.68;1.80;;;8.20;97.70;;;;;;5049257;28;20455;-78
2021/11/26 09:01:00;;;;;;;16.70;2.20;;;8.20;97.70;;;;;;5046441;28;20041;-76
2021/11/26 09:03:26;;;;;;;6.95;2.17;;;8.30;98.10;;;;;;5039380;28;20049;-78
2021/11/26 09:05:52;;;;;;;11.18;1.33;;;8.60;98.10;;;;;;5041033;28;20030;-77
2021/11/26 09:08:17;;;;;;;10.63;1.70;;;8.80;98.10;;;;;;5043638;28;20052;-77
2021/11/26 09:10:46;;;;;;;11.52;2.10;;;9.10;97.80;;;;;;5026063;28;20479;-77
2021/11/26 09:13:13;;;;;;;14.13;2.63;;;9.30;97.70;;;;;;5042526;28;20107;-78
2021/11/26 09:15:39;;;;;;;10.70;1.45;;;9.40;97.40;;;;;;5046196;28;20025;-75
2021/11/26 09:18:07;;;;;;;22.02;2.75;;;9.40;96.80;;;;;;5028642;28;20049;-76
2021/11/26 09:20:33;;;;;;;7.00;1.83;;;9.40;96.20;;;;;;5042790;28;20475;-76
2021/11/26 09:22:59;;;;;;;16.52;3.78;;;9.30;96.20;;;;;;5045902;28;20448;-77
2021/11/26 09:25:25;;;;;;;6.40;1.50;;;9.30;96.20;;;;;;5044782;28;20025;-77
2021/11/26 09:27:50;;;;;;;15.02;2.25;;;9.40;96.30;;;;;;5046301;28;20025;-77
2021/11/26 09:30:19;;;;;;;17.27;2.05;;;9.50;96.30;;;;;;5044313;28;20095;-77
2021/11/26 09:32:45;;;;;;;13.43;2.47;;;9.60;95.80;;;;;;5045230;28;20017;-76
2021/11/26 09:35:11;;;;;;;14.55;3.08;;;9.60;95.40;;;;;;5045129;28;20029;-75
2021/11/26 09:37:37;;;;;;;12.50;2.28;;;9.50;95.30;;;;;;5043515;28;20022;-76
2021/11/26 09:40:06;;;;;;;8.07;1.90;;;9.50;95.20;;;;;;5043738;28;20135;-76
2021/11/26 09:42:32;;;;;;;8.55;2.35;;;9.40;95.20;;;;;;5044873;28;20025;-77
2021/11/26 09:45:00;;;;;;;14.50;2.45;;;9.40;95.20;;;;;;5045440;28;20036;-77
2021/11/26 09:47:26;;;;;;;11.27;2.45;;;9.40;95.00;;;;;;5040698;28;20112;-77
2021/11/26 09:49:52;;;;;;;;;;;9.30;94.90;;;;;;5028046;28;20029;-77
2021/11/26 09:52:17;;;;;;;12.70;2.42;;;9.30;94.80;;;;;;5044652;28;20011;-76
2021/11/26 09:54:45;;;;;;;14.95;2.40;;;9.30;94.70;;;;;;5043517;28;20037;-76
2021/11/26 09:57:11;;;;;;;9.25;2.10;;;9.20;94.60;;;;;;5045791;28;20087;-76
2021/11/26 09:59:42;;;;;;;;;;;9.10;94.60;;;;;;5045154;28;20029;-75
2021/11/26 10:02:17;;;;;;;16.08;2.22;;;9.00;94.80;;;;;;5046314;28;19913;-77
2021/11/26 10:04:43;;;;;;;12.68;2.25;;;8.90;94.80;;;;;;5042887;28;20163;-76
2021/11/26 10:07:09;;;;;;;13.68;2.15;;;8.60;94.70;;;;;;5025752;28;20404;-76
2021/11/26 10:09:38;;;;;;;21.23;3.00;;;8.40;94.90;;;;;;5045247;28;20100;-76
2021/11/26 10:12:14;;;;;;;11.57;2.53;;;8.10;95.30;;;;;;5043977;28;20114;-76
2021/11/26 10:14:42;;;;;;;13.00;2.50;;;8.00;95.70;;;;;;5044479;28;20014;-76
2021/11/26 10:17:14;;;;;;;7.75;2.05;;;7.90;96.10;;;;;;5042122;28;20029;-77
2021/11/26 10:19:45;;;;;;;11.27;1.77;;;7.90;96.20;;;;;;5044529;28;20025;-75
2021/11/26 10:22:33;;;;;;;7.60;1.35;;;7.90;96.20;;;;;;5041736;28;20030;-76
2021/11/26 10:25:09;;;;;;;9.27;2.08;;;7.90;96.40;;;;;;5041287;28;20069;-75
2021/11/26 10:27:57;;;;;;;10.45;1.67;;;7.90;96.40;;;;;;5043481;28;20014;-72
2021/11/26 10:30:39;;;;;;;10.65;1.80;;;8.00;96.70;;;;;;5041401;28;20048;-76
2021/11/26 10:33:06;;;;;;;11.38;1.90;;;8.10;96.70;;;;;;5042542;28;20052;-76
2021/11/26 10:35:45;;;;;;;8.15;2.00;;;8.10;96.50;;;;;;5040948;28;20030;-77
2021/11/26 10:38:21;;;;;;;15.20;2.65;;;8.10;96.50;;;;;;5043634;28;20079;-77
2021/11/26 10:40:53;;;;;;;13.18;2.40;;;8.30;97.40;;;;;;5044942;28;20056;-76
2021/11/26 10:43:33;;;;;;;16.90;2.42;;;9.20;98.60;;;;;;5043549;28;20074;-77
2021/11/26 10:58:59;;;;;;;13.38;2.60;;;13.10;94.00;;;;;;5037457;28;20095;-76
2021/11/26 11:01:25;;;;;;;19.10;2.72;;;13.20;93.20;;;;;;5036203;28;20495;-77
2021/11/26 11:03:51;;;;;;;13.77;2.33;;;12.70;92.20;;;;;;5035943;28;20064;-77
2021/11/26 11:06:24;;;;;;;10.93;1.85;;;12.30;92.50;;;;;;5034387;28;20040;-77
2021/11/26 11:08:59;;;;;;;9.70;2.00;;;12.50;92.40;;;;;;5037260;28;20021;-77
2021/11/26 11:11:25;;;;;;;13.37;2.57;;;12.40;91.80;;;;;;5048079;28;20025;-77
2021/11/26 11:13:51;;;;;;;15.57;2.53;;;12.20;91.70;;;;;;5043311;28;20025;-77
2021/11/26 11:16:17;;;;;;;11.30;2.03;;;12.00;91.20;;;;;;5048232;28;20029;-75
2021/11/26 11:18:43;;;;;;;10.52;2.05;;;11.80;90.90;;;;;;5037010;28;20111;-76
2021/11/26 11:21:10;;;;;;;10.35;2.05;;;11.50;90.70;;;;;;5036528;28;20030;-76
2021/11/26 11:23:36;;;;;;;11.63;2.58;;;11.20;90.80;;;;;;5042401;28;20064;-77
2021/11/26 11:26:03;;;;;;;10.60;2.15;;;11.00;90.70;;;;;;5032244;28;20025;-78
2021/11/26 11:28:29;;;;;;;13.20;2.00;;;10.80;91.00;;;;;;5032307;28;20056;-78
2021/11/26 11:30:55;;;;;;;12.00;2.08;;;10.70;90.90;;;;;;5032264;28;20101;-76
2021/11/26 11:33:23;;;;;;;16.17;2.75;;;10.50;91.00;;;;;;5032046;28;20099;-78
2021/11/26 11:35:49;;;;;;;7.88;1.83;;;10.40;91.10;;;;;;5015708;28;20669;-75
2021/11/26 11:38:18;;;;;;;7.47;1.50;;;10.30;91.10;;;;;;5033682;28;20037;-75
2021/11/26 11:40:57;;;;;;;7.90;1.67;;;10.20;91.00;;;;;;5033969;28;20033;-77
2021/11/26 11:43:23;;;;;;;10.40;1.58;;;10.10;91.00;;;;;;5033813;28;20029;-75
2021/11/26 11:46:00;;;;;;;9.93;1.65;;;10.00;91.10;;;;;;5032164;28;20029;-75
2021/11/26 11:48:40;;;;;;;7.82;1.23;;;9.90;91.00;;;;;;5033316;28;20029;-75
2021/11/26 11:51:07;;;;;;;6.80;1.20;;;9.80;91.00;;;;;;5032390;28;20392;-76
2021/11/26 11:53:36;;;;;;;10.30;1.95;;;9.80;91.30;;;;;;5033645;28;20056;-76
2021/11/26 11:56:15;;;;;;;7.03;1.40;;;9.90;91.60;;;;;;5033409;28;20017;-77
2021/11/26 11:58:51;;;;;;;7.38;2.17;;;10.00;91.30;;;;;;5032821;28;20080;-76
2021/11/26 12:01:26;;;;;;;2.15;0.75;;;9.90;90.90;;;;;;5032728;28;20025;-76
2021/11/26 12:03:55;;;;;;;3.90;0.82;;;9.80;90.70;;;;;;5033860;28;20712;-78
2021/11/26 12:06:21;;;;;;;4.97;0.80;;;9.50;91.00;;;;;;5031861;28;20034;-78
2021/11/26 12:08:56;;;;;;;;;;;9.40;90.90;;;;;;5033632;28;20024;-79
2021/11/26 12:11:25;;;;;;;5.57;0.75;;;9.30;90.90;;;;;;5033297;28;19905;-78
2021/11/26 12:14:11;;;;;;;5.07;1.02;;;9.30;91.40;;;;;;5031911;28;20029;-78
2021/11/26 12:16:48;;;;;;;3.30;0.90;;;9.60;91.90;;;;;;5047196;28;20037;-78
2021/11/26 12:19:23;;;;;;;6.30;1.30;;;10.20;92.30;;;;;;5051679;28;20033;-79
2021/11/26 12:21:52;;;;;;;7.43;1.20;;;10.60;92.00;;;;;;5052298;28;20154;-77
2021/11/26 12:24:21;;;;;;;6.13;1.50;;;10.70;91.20;;;;;;5052154;28;20032;-77
2021/11/26 12:26:54;;;;;;;3.60;0.98;;;10.50;90.70;;;;;;5052635;28;20033;-78
2021/11/26 12:29:30;;;;;;;10.77;1.80;;;10.30;90.70;;;;;;5051145;28;20846;-77
2021/11/26 12:32:17;;;;;;;9.77;1.80;;;10.30;90.60;;;;;;5051483;28;20029;-77
2021/11/26 12:34:46;;;;;;;9.95;1.60;;;10.20;90.60;;;;;;5051393;28;20357;-77
2021/11/26 12:37:33;;;;;;;4.22;1.13;;;10.20;90.70;;;;;;5052844;28;20128;-77
2021/11/26 12:40:04;;;;;;;10.45;1.38;;;10.30;90.70;;;;;;5052559;28;20529;-77
2021/11/26 12:42:30;;;;;;;5.07;1.20;;;10.30;90.50;;;;;;5053281;28;20051;-79
2021/11/26 12:45:16;;;;;;;9.93;1.73;;;10.30;90.40;;;;;;5053012;28;20429;-77
2021/11/26 12:47:55;;;;;;;8.27;1.90;;;10.30;90.40;;;;;;5053598;28;20025;-77
2021/11/26 12:53:12;;;;;;;6.07;1.33;;;10.00;90.20;;;;;;5057233;28;20077;-76
2021/11/26 12:55:51;;;;;;;3.53;0.88;;;9.90;90.00;;;;;;5055336;28;20475;-79
2021/11/26 12:58:17;;;;;;;4.38;1.02;;;9.60;89.60;;;;;;5055667;28;20056;-77
2021/11/26 13:00:53;;;;;;;4.93;1.00;;;9.10;89.50;;;;;;5055597;28;20033;-77
2021/11/26 13:03:20;;;;;;;4.68;1.15;;;8.60;90.10;;;;;;5057116;28;20021;-74
2021/11/26 13:05:55;;;;;;;;;;;8.30;90.40;;;;;;5056869;28;20479;-77
2021/11/26 13:08:22;;;;;;;3.83;1.30;;;8.10;90.80;;;;;;5056608;28;19948;-77
2021/11/26 13:10:48;;;;;;;4.45;1.17;;;8.00;90.90;;;;;;5038882;28;20025;-76
2021/11/26 13:13:14;;;;;;;;;;;7.90;91.10;;;;;;5054820;28;20125;-77
2021/11/26 13:15:40;;;;;;;2.65;0.93;;;7.90;91.20;;;;;;5056202;28;19952;-78